sensor_id;sensor_type;location;lat;lon;timestamp;P1;P2;P0
58740;PMS7003;44512;53.046;18.604;2022-12-05T00:00:34;42;34;23
58740;PMS7003;44512;53.046;18.604;2022-12-05T00:11:03;39;32;22
58740;PMS7003;44512;53.046;18.604;2022-12-05T00:21:32;39;34;23
58740;PMS7003;44512;53.046;18.604;2022-12-05T00:32:00;46;36;24
58740;PMS7003;44512;53.046;18.604;2022-12-05T00:42:28;35;30;19
58740;PMS7003;44512;53.046;18.604;2022-12-05T00:52:56;39;30;20
58740;PMS7003;44512;53.046;18.604;2022-12-05T01:03:25;38;31;21
58740;PMS7003;44512;53.046;18.604;2022-12-05T01:13:53;47;32;19
58740;PMS7003;44512;53.046;18.604;2022-12-05T01:24:22;35;29;20
58740;PMS7003;44512;53.046;18.604;2022-12-05T01:34:50;42;32;22
58740;PMS7003;44512;53.046;18.604;2022-12-05T01:55:47;46;34;22
58740;PMS7003;44512;53.046;18.604;2022-12-05T02:06:15;45;34;21
58740;PMS7003;44512;53.046;18.604;2022-12-05T02:27:18;41;32;22
58740;PMS7003;44512;53.046;18.604;2022-12-05T02:37:43;38;32;22
58740;PMS7003;44512;53.046;18.604;2022-12-05T02:48:10;33;29;21
58740;PMS7003;44512;53.046;18.604;2022-12-05T02:58:41;40;30;19
58740;PMS7003;44512;53.046;18.604;2022-12-05T03:30:08;38;31;19
58740;PMS7003;44512;53.046;18.604;2022-12-05T03:40:38;34;28;18
58740;PMS7003;44512;53.046;18.604;2022-12-05T03:51:00;34;28;19
58740;PMS7003;44512;53.046;18.604;2022-12-05T04:01:29;34;29;20
58740;PMS7003;44512;53.046;18.604;2022-12-05T04:11:59;41;33;21
58740;PMS7003;44512;53.046;18.604;2022-12-05T04:22:26;41;30;21
58740;PMS7003;44512;53.046;18.604;2022-12-05T04:43:23;41;31;21
58740;PMS7003;44512;53.046;18.604;2022-12-05T04:53:53;47;32;21
58740;PMS7003;44512;53.046;18.604;2022-12-05T05:14:48;44;32;21
58740;PMS7003;44512;53.046;18.604;2022-12-05T05:25:17;38;26;19
58740;PMS7003;44512;53.046;18.604;2022-12-05T05:35:45;42;34;23
58740;PMS7003;44512;53.046;18.604;2022-12-05T05:46:14;40;33;22
58740;PMS7003;44512;53.046;18.604;2022-12-05T05:56:41;46;35;24
58740;PMS7003;44512;53.046;18.604;2022-12-05T06:07:10;41;32;21
58740;PMS7003;44512;53.046;18.604;2022-12-05T06:17:38;35;31;22
58740;PMS7003;44512;53.046;18.604;2022-12-05T06:28:07;43;36;24
58740;PMS7003;44512;53.046;18.604;2022-12-05T06:38:35;43;33;22
58740;PMS7003;44512;53.046;18.604;2022-12-05T06:49:04;46;36;23
58740;PMS7003;44512;53.046;18.604;2022-12-05T06:59:32;51;36;24
58740;PMS7003;44512;53.046;18.604;2022-12-05T07:10:01;50;40;26
58740;PMS7003;44512;53.046;18.604;2022-12-05T07:20:29;47;35;25
58740;PMS7003;44512;53.046;18.604;2022-12-05T07:30:59;40;34;23
58740;PMS7003;44512;53.046;18.604;2022-12-05T07:41:27;37;32;22
58740;PMS7003;44512;53.046;18.604;2022-12-05T07:51:55;42;27;17
58740;PMS7003;44512;53.046;18.604;2022-12-05T08:02:23;49;34;20
58740;PMS7003;44512;53.046;18.604;2022-12-05T08:12:52;39;29;20
58740;PMS7003;44512;53.046;18.604;2022-12-05T08:23:20;45;31;22
58740;PMS7003;44512;53.046;18.604;2022-12-05T08:33:49;41;30;22
58740;PMS7003;44512;53.046;18.604;2022-12-05T08:44:17;39;33;21
58740;PMS7003;44512;53.046;18.604;2022-12-05T08:54:45;42;34;23
58740;PMS7003;44512;53.046;18.604;2022-12-05T09:05:14;43;31;21
58740;PMS7003;44512;53.046;18.604;2022-12-05T09:15:43;38;32;22
58740;PMS7003;44512;53.046;18.604;2022-12-05T09:26:13;40;33;22
58740;PMS7003;44512;53.046;18.604;2022-12-05T09:51:36;43;32;22
58740;PMS7003;44512;53.046;18.604;2022-12-05T10:12:05;41;30;21
58740;PMS7003;44512;53.046;18.604;2022-12-05T10:22:12;38;31;20
58740;PMS7003;44512;53.046;18.604;2022-12-05T10:32:21;39;30;20
58740;PMS7003;44512;53.046;18.604;2022-12-05T10:42:30;42;32;19
58740;PMS7003;44512;53.046;18.604;2022-12-05T10:52:34;35;29;20
58740;PMS7003;44512;53.046;18.604;2022-12-05T11:02:36;43;32;21
58740;PMS7003;44512;53.046;18.604;2022-12-05T11:12:38;38;31;21
58740;PMS7003;44512;53.046;18.604;2022-12-05T11:22:40;41;33;23
58740;PMS7003;44512;53.046;18.604;2022-12-05T11:32:41;39;31;23
58740;PMS7003;44512;53.046;18.604;2022-12-05T12:23:51;44;34;22
58740;PMS7003;44512;53.046;18.604;2022-12-05T12:34:00;44;33;21
58740;PMS7003;44512;53.046;18.604;2022-12-05T13:04:43;43;34;23
58740;PMS7003;44512;53.046;18.604;2022-12-05T13:14:52;39;34;21
58740;PMS7003;44512;53.046;18.604;2022-12-05T13:24:59;47;36;24
58740;PMS7003;44512;53.046;18.604;2022-12-05T13:35:07;45;35;24
58740;PMS7003;44512;53.046;18.604;2022-12-05T13:45:15;51;38;26
58740;PMS7003;44512;53.046;18.604;2022-12-05T14:05:39;49;39;26
58740;PMS7003;44512;53.046;18.604;2022-12-05T14:15:44;53;40;27
58740;PMS7003;44512;53.046;18.604;2022-12-05T14:36:03;51;39;26
58740;PMS7003;44512;53.046;18.604;2022-12-05T14:56:23;42;35;24
58740;PMS7003;44512;53.046;18.604;2022-12-05T15:06:52;46;34;23
58740;PMS7003;44512;53.046;18.604;2022-12-05T15:17:24;58;38;25
58740;PMS7003;44512;53.046;18.604;2022-12-05T15:38:22;54;37;26
58740;PMS7003;44512;53.046;18.604;2022-12-05T15:48:45;57;39;24
58740;PMS7003;44512;53.046;18.604;2022-12-05T16:09:43;47;37;24
58740;PMS7003;44512;53.046;18.604;2022-12-05T16:20:12;57;40;26
58740;PMS7003;44512;53.046;18.604;2022-12-05T16:30:39;57;44;28
58740;PMS7003;44512;53.046;18.604;2022-12-05T16:41:08;54;39;25
58740;PMS7003;44512;53.046;18.604;2022-12-05T16:51:40;54;37;26
58740;PMS7003;44512;53.046;18.604;2022-12-05T17:02:06;54;37;24
58740;PMS7003;44512;53.046;18.604;2022-12-05T17:12:33;47;38;24
58740;PMS7003;44512;53.046;18.604;2022-12-05T17:23:01;50;37;25
58740;PMS7003;44512;53.046;18.604;2022-12-05T17:33:30;51;36;24
58740;PMS7003;44512;53.046;18.604;2022-12-05T17:43:58;52;39;25
58740;PMS7003;44512;53.046;18.604;2022-12-05T17:54:27;56;40;25
58740;PMS7003;44512;53.046;18.604;2022-12-05T18:04:55;47;36;24
58740;PMS7003;44512;53.046;18.604;2022-12-05T18:15:24;47;34;22
58740;PMS7003;44512;53.046;18.604;2022-12-05T18:36:21;52;39;25
58740;PMS7003;44512;53.046;18.604;2022-12-05T18:46:49;51;39;25
58740;PMS7003;44512;53.046;18.604;2022-12-05T18:57:18;48;38;24
58740;PMS7003;44512;53.046;18.604;2022-12-05T19:07:46;51;38;24
58740;PMS7003;44512;53.046;18.604;2022-12-05T19:18:15;53;41;26
58740;PMS7003;44512;53.046;18.604;2022-12-05T19:28:43;64;45;29
58740;PMS7003;44512;53.046;18.604;2022-12-05T19:49:40;60;43;29
58740;PMS7003;44512;53.046;18.604;2022-12-05T20:00:09;63;49;31
58740;PMS7003;44512;53.046;18.604;2022-12-05T20:10:37;65;47;29
58740;PMS7003;44512;53.046;18.604;2022-12-05T20:21:07;61;45;28
58740;PMS7003;44512;53.046;18.604;2022-12-05T20:31:35;68;47;32
58740;PMS7003;44512;53.046;18.604;2022-12-05T20:42:03;67;46;30
58740;PMS7003;44512;53.046;18.604;2022-12-05T20:52:31;65;51;33
58740;PMS7003;44512;53.046;18.604;2022-12-05T21:03:00;61;48;29
58740;PMS7003;44512;53.046;18.604;2022-12-05T21:13:28;69;49;30
58740;PMS7003;44512;53.046;18.604;2022-12-05T21:23:57;68;49;33
58740;PMS7003;44512;53.046;18.604;2022-12-05T21:34:25;70;49;30
58740;PMS7003;44512;53.046;18.604;2022-12-05T21:44:54;68;47;26
58740;PMS7003;44512;53.046;18.604;2022-12-05T21:55:23;72;52;33
58740;PMS7003;44512;53.046;18.604;2022-12-05T22:16:19;80;56;34
58740;PMS7003;44512;53.046;18.604;2022-12-05T22:26:48;75;56;34
58740;PMS7003;44512;53.046;18.604;2022-12-05T22:37:16;76;53;33
58740;PMS7003;44512;53.046;18.604;2022-12-05T22:47:45;74;53;33
58740;PMS7003;44512;53.046;18.604;2022-12-05T22:58:13;70;51;33
58740;PMS7003;44512;53.046;18.604;2022-12-05T23:08:43;74;54;35
58740;PMS7003;44512;53.046;18.604;2022-12-05T23:19:10;74;54;34
58740;PMS7003;44512;53.046;18.604;2022-12-05T23:29:39;67;52;33
58740;PMS7003;44512;53.046;18.604;2022-12-05T23:40:07;66;50;31
58740;PMS7003;44512;53.046;18.604;2022-12-05T23:50:36;67;48;30
